Time;durP1;ratioP1;P1;durP2;ratioP2;P2;SDS_P1;SDS_P2;PMS_P1;PMS_P2;Temp;Humidity;BMP_temperature;BMP_pressure;BME280_temperature;BME280_humidity;BME280_pressure;Samples;Min_cycle;Max_cycle;Signal;HPM_P1;HPM_P2
2022/04/28 00:00:40;;;;;;;16.85;7.53;;;;;;;;;;10395261;28;20075;-73
2022/04/28 00:05:44;;;;;;;19.13;7.75;;;;;;;;;;10384628;28;20518;-74
2022/04/28 00:10:48;;;;;;;22.45;8.77;;;;;;;;;;10395050;28;20091;-73
2022/04/28 00:15:53;;;;;;;17.33;7.22;;;;;;;;;;10398028;28;20499;-73
2022/04/28 00:20:55;;;;;;;20.60;8.10;;;;;;;;;;10401457;28;20687;-73
2022/04/28 00:25:59;;;;;;;18.37;7.67;;;;;;;;;;10388413;28;20160;-72
2022/04/28 00:31:03;;;;;;;20.80;7.80;;;;;;;;;;10390974;28;20026;-73
2022/04/28 00:36:07;;;;;;;19.13;7.60;;;;;;;;;;10393910;28;20038;-72
2022/04/28 00:41:10;;;;;;;18.93;8.20;;;;;;;;;;10382495;28;20132;-73
2022/04/28 00:46:15;;;;;;;19.02;7.32;;;;;;;;;;10401332;28;20412;-72
2022/04/28 00:51:19;;;;;;;21.75;8.40;;;;;;;;;;10396834;28;20048;-73
2022/04/28 00:56:21;;;;;;;19.10;7.88;;;;;;;;;;10405052;28;20041;-73
2022/04/28 01:01:26;;;;;;;24.27;8.38;;;;;;;;;;10403744;28;20179;-75
2022/04/28 01:06:29;;;;;;;17.08;7.55;;;;;;;;;;10384070;28;20038;-73
2022/04/28 01:11:33;;;;;;;28.25;9.52;;;;;;;;;;10397752;28;20041;-73
2022/04/28 01:16:38;;;;;;;21.70;8.40;;;;;;;;;;10403046;28;20042;-73
2022/04/28 01:21:43;;;;;;;22.73;8.77;;;;;;;;;;10402504;28;20450;-73
2022/04/28 01:26:49;;;;;;;23.33;8.85;;;;;;;;;;10401151;28;20030;-73
2022/04/28 01:31:52;;;;;;;22.50;8.10;;;;;;;;;;10389713;28;20504;-73
2022/04/28 01:36:57;;;;;;;23.23;8.80;;;;;;;;;;10397440;28;20132;-72
2022/04/28 01:42:00;;;;;;;22.13;8.00;;;;;;;;;;10402161;28;20068;-72
2022/04/28 01:47:04;;;;;;;20.57;8.43;;;;;;;;;;10398418;28;20046;-72
2022/04/28 01:57:30;;;;;;;27.63;10.35;;;;;;;;;;10405840;28;20069;-71
2022/04/28 02:02:34;;;;;;;20.48;7.95;;;;;;;;;;10400837;28;20091;-73
2022/04/28 02:07:40;;;;;;;22.88;9.38;;;;;;;;;;10391165;28;20465;-71
2022/04/28 02:12:44;;;;;;;26.73;9.60;;;;;;;;;;10398162;28;20124;-72
2022/04/28 02:17:46;;;;;;;21.40;8.15;;;;;;;;;;10392646;28;20041;-73
2022/04/28 02:22:51;;;;;;;21.65;8.43;;;;;;;;;;10393590;28;20521;-74
2022/04/28 02:27:54;;;;;;;23.40;8.15;;;;;;;;;;10407843;28;20033;-73
2022/04/28 02:38:21;;;;;;;21.17;7.93;;;;;;;;;;10392425;28;20073;-72
2022/04/28 02:43:24;;;;;;;20.85;8.02;;;;;;;;;;10399204;28;20037;-72
2022/04/28 02:48:27;;;;;;;19.80;8.35;;;;;;;;;;10393246;28;20475;-72
2022/04/28 02:53:31;;;;;;;10.73;5.22;;;;;;;;;;10413766;28;20042;-73
2022/04/28 02:58:34;;;;;;;;;;;;;;;;;;10393978;28;20033;-72
2022/04/28 03:03:37;;;;;;;18.48;7.22;;;;;;;;;;10395290;28;20002;-72
2022/04/28 03:14:01;;;;;;;22.58;8.75;;;;;;;;;;10390723;28;20056;-72
2022/04/28 03:19:04;;;;;;;20.10;7.95;;;;;;;;;;10402338;28;20037;-74
2022/04/28 03:24:10;;;;;;;21.30;8.23;;;;;;;;;;10407499;28;20086;-74
2022/04/28 03:29:13;;;;;;;18.80;7.80;;;;;;;;;;10390567;28;20458;-73
2022/04/28 03:34:16;;;;;;;22.60;8.77;;;;;;;;;;10394009;28;20038;-73
2022/04/28 03:39:20;;;;;;;18.67;8.02;;;;;;;;;;10390585;28;20425;-74
2022/04/28 03:44:23;;;;;;;25.88;8.13;;;;;;;;;;10392758;28;20041;-73
2022/04/28 03:49:26;;;;;;;24.85;8.13;;;;;;;;;;10394592;28;20084;-71
2022/04/28 03:54:30;;;;;;;24.88;7.88;;;;;;;;;;10418824;28;20521;-73
2022/04/28 03:59:33;;;;;;;20.13;7.53;;;;;;;;;;10381523;28;20056;-73
2022/04/28 04:04:36;;;;;;;26.17;9.43;;;;;;;;;;10420297;28;20132;-74
2022/04/28 04:09:42;;;;;;;19.05;7.72;;;;;;;;;;10397594;28;20049;-73
2022/04/28 04:14:44;;;;;;;26.27;8.70;;;;;;;;;;10392762;28;20095;-73
2022/04/28 04:19:47;;;;;;;24.02;9.20;;;;;;;;;;10408536;28;20033;-74
2022/04/28 04:24:51;;;;;;;23.75;8.55;;;;;;;;;;10416403;28;20038;-72
2022/04/28 04:29:54;;;;;;;;;;;;;;;;;;10418248;28;20524;-70
2022/04/28 04:34:57;;;;;;;23.48;8.27;;;;;;;;;;10393045;28;19927;-73
2022/04/28 04:40:01;;;;;;;24.13;8.60;;;;;;;;;;10396059;28;20120;-73
2022/04/28 04:45:04;;;;;;;;;;;;;;;;;;10396637;28;20034;-72
2022/04/28 04:50:08;;;;;;;25.00;9.15;;;;;;;;;;10394031;28;20408;-73
2022/04/28 04:55:12;;;;;;;22.02;8.73;;;;;;;;;;10395908;28;20194;-73
2022/04/28 05:00:14;;;;;;;;;;;;;;;;;;10401679;28;20132;-73
2022/04/28 05:05:17;;;;;;;23.90;9.48;;;;;;;;;;10406609;28;20001;-73
2022/04/28 05:10:21;;;;;;;20.42;8.00;;;;;;;;;;10405350;28;20425;-73
2022/04/28 05:15:24;;;;;;;24.40;8.38;;;;;;;;;;10390630;28;20041;-73
2022/04/28 05:20:27;;;;;;;23.42;8.70;;;;;;;;;;10385483;28;20045;-73
2022/04/28 05:25:31;;;;;;;23.55;9.07;;;;;;;;;;10386786;28;20580;-72
2022/04/28 05:30:34;;;;;;;23.02;8.70;;;;;;;;;;10388301;28;20045;-75
2022/04/28 05:35:39;;;;;;;23.10;8.23;;;;;;;;;;10402425;28;20446;-73
2022/04/28 05:40:43;;;;;;;19.88;8.10;;;;;;;;;;10404157;28;20117;-73
2022/04/28 05:45:47;;;;;;;19.27;8.57;;;;;;;;;;10402754;28;20084;-74
2022/04/28 05:50:50;;;;;;;23.08;9.70;;;;;;;;;;10384832;28;20121;-73
2022/04/28 05:55:54;;;;;;;8.88;4.05;;;;;;;;;;10400994;28;20033;-72
2022/04/28 06:00:57;;;;;;;20.60;8.95;;;;;;;;;;10394740;28;20041;-74
2022/04/28 06:06:00;;;;;;;22.73;9.60;;;;;;;;;;10407416;28;20119;-74
2022/04/28 06:11:04;;;;;;;21.52;8.80;;;;;;;;;;10386312;28;20117;-74
2022/04/28 06:16:07;;;;;;;20.92;8.43;;;;;;;;;;10403952;28;20080;-75
2022/04/28 06:21:10;;;;;;;24.52;10.00;;;;;;;;;;10407135;28;20088;-73
2022/04/28 06:26:14;;;;;;;21.42;7.82;;;;;;;;;;10378245;28;20140;-74
2022/04/28 06:31:17;;;;;;;18.20;6.85;;;;;;;;;;10385108;28;20041;-70
2022/04/28 06:36:20;;;;;;;12.77;6.18;;;;;;;;;;10400079;28;20067;-73
2022/04/28 06:41:24;;;;;;;9.77;5.13;;;;;;;;;;10399358;28;20049;-73
2022/04/28 06:46:28;;;;;;;10.38;4.70;;;;;;;;;;10399041;28;20053;-72
2022/04/28 06:51:31;;;;;;;14.53;6.77;;;;;;;;;;10391010;28;20033;-73
2022/04/28 06:56:36;;;;;;;25.33;8.03;;;;;;;;;;10396179;28;20042;-71
2022/04/28 07:01:39;;;;;;;15.10;6.78;;;;;;;;;;10389938;28;20467;-71
2022/04/28 07:06:45;;;;;;;16.55;6.65;;;;;;;;;;10397718;28;20047;-74
2022/04/28 07:11:56;;;;;;;16.33;6.35;;;;;;;;;;10402819;28;20217;-75
2022/04/28 07:16:59;;;;;;;15.70;6.70;;;;;;;;;;10430922;28;20068;-74
2022/04/28 07:22:05;;;;;;;18.38;6.60;;;;;;;;;;10402873;28;20038;-73
2022/04/28 07:27:09;;;;;;;15.93;7.43;;;;;;;;;;10411323;28;20057;-74
2022/04/28 07:32:14;;;;;;;16.38;7.63;;;;;;;;;;10403895;28;20038;-74
2022/04/28 07:37:22;;;;;;;10.60;6.07;;;;;;;;;;10385228;28;20521;-75
2022/04/28 07:42:25;;;;;;;;;;;;;;;;;;10412349;28;20231;-74
2022/04/28 07:47:29;;;;;;;8.73;6.20;;;;;;;;;;10412729;28;20052;-75
2022/04/28 07:52:32;;;;;;;10.23;7.45;;;;;;;;;;10409575;28;20583;-75
2022/04/28 07:57:35;;;;;;;10.23;6.85;;;;;;;;;;10397009;28;20168;-74
2022/04/28 08:02:40;;;;;;;8.90;7.15;;;;;;;;;;10411635;28;20049;-74
2022/04/28 08:07:44;;;;;;;9.82;7.30;;;;;;;;;;10400640;28;20045;-76
2022/04/28 08:12:47;;;;;;;8.98;7.05;;;;;;;;;;10404091;28;20037;-75
2022/04/28 08:17:52;;;;;;;11.93;8.00;;;;;;;;;;10401862;28;20502;-74
2022/04/28 08:22:55;;;;;;;10.00;8.00;;;;;;;;;;10404475;28;20068;-76
2022/04/28 08:27:58;;;;;;;7.97;6.40;;;;;;;;;;10397919;28;20449;-76
2022/04/28 08:33:03;;;;;;;9.02;6.57;;;;;;;;;;10404272;28;20139;-75
2022/04/28 08:38:06;;;;;;;7.68;6.65;;;;;;;;;;10406285;28;20659;-73
2022/04/28 08:43:11;;;;;;;6.38;5.78;;;;;;;;;;10399969;28;20485;-74
2022/04/28 08:48:19;;;;;;;;;;;;;;;;;;10393648;28;20128;-74
2022/04/28 08:53:23;;;;;;;7.65;6.20;;;;;;;;;;10397897;28;20290;-76
2022/04/28 08:58:26;;;;;;;11.80;6.35;;;;;;;;;;10389482;28;20370;-75
2022/04/28 09:03:29;;;;;;;8.68;6.80;;;;;;;;;;10404565;28;20080;-75
2022/04/28 09:08:34;;;;;;;8.93;7.53;;;;;;;;;;10396562;28;20072;-74
2022/04/28 09:18:57;;;;;;;43.83;9.90;;;;;;;;;;10381130;28;20049;-75
2022/04/28 09:24:01;;;;;;;7.68;6.38;;;;;;;;;;10387510;28;20151;-72
2022/04/28 09:29:04;;;;;;;10.93;7.32;;;;;;;;;;10397513;28;20502;-75
2022/04/28 09:34:08;;;;;;;17.60;6.22;;;;;;;;;;10376712;28;20088;-76
2022/04/28 09:42:29;;;;;;;11.50;6.80;;;;;;;;;;10383183;28;20044;-75
2022/04/28 09:44:42;;;;;;;11.13;5.95;;;;;;;;;;10383662;28;20045;-76
2022/04/28 09:49:52;;;;;;;13.07;6.50;;;;;;;;;;10398267;28;20072;-75
2022/04/28 09:54:57;;;;;;;10.25;6.72;;;;;;;;;;10383196;28;20121;-73
2022/04/28 10:00:00;;;;;;;9.80;5.55;;;;;;;;;;10380994;28;20088;-76
2022/04/28 10:05:04;;;;;;;9.23;5.75;;;;;;;;;;10394907;28;20036;-75
2022/04/28 10:10:08;;;;;;;7.18;5.40;;;;;;;;;;10378040;28;20450;-74
2022/04/28 10:15:13;;;;;;;8.52;6.07;;;;;;;;;;10381263;28;20056;-73
2022/04/28 10:20:19;;;;;;;7.22;5.63;;;;;;;;;;10402609;28;20069;-74
2022/04/28 10:36:26;;;;;;;8.52;5.80;;;;;;;;;;10390158;28;20855;-71
2022/04/28 10:41:31;;;;;;;7.38;5.47;;;;;;;;;;10410070;28;20552;-75
2022/04/28 10:46:34;;;;;;;7.47;5.72;;;;;;;;;;10410323;28;20037;-76
2022/04/28 10:51:37;;;;;;;8.05;5.57;;;;;;;;;;10392364;28;20154;-76
2022/04/28 10:56:55;;;;;;;11.73;5.55;;;;;;;;;;10387804;28;20079;-73
2022/04/28 11:01:58;;;;;;;6.05;4.57;;;;;;;;;;10396060;28;20136;-73
2022/04/28 11:07:05;;;;;;;13.25;5.35;;;;;;;;;;10410445;28;20462;-72
2022/04/28 11:12:12;;;;;;;7.00;4.60;;;;;;;;;;10393051;28;20041;-71
2022/04/28 11:17:16;;;;;;;5.88;4.40;;;;;;;;;;10385186;28;20112;-73
2022/04/28 11:22:18;;;;;;;29.50;6.97;;;;;;;;;;10387497;28;20171;-73
2022/04/28 11:27:24;;;;;;;16.80;5.35;;;;;;;;;;10385240;28;20422;-72
2022/04/28 11:32:27;;;;;;;11.25;4.97;;;;;;;;;;10386381;28;20038;-71
2022/04/28 11:37:29;;;;;;;6.35;3.88;;;;;;;;;;10400988;28;20046;-72
2022/04/28 11:42:36;;;;;;;5.28;4.45;;;;;;;;;;10380259;28;20577;-73
2022/04/28 11:47:42;;;;;;;6.97;4.03;;;;;;;;;;10384759;28;20137;-73
2022/04/28 11:52:45;;;;;;;4.82;4.00;;;;;;;;;;10395288;28;22012;-72
2022/04/28 11:57:49;;;;;;;6.07;4.50;;;;;;;;;;10398833;28;20065;-72
2022/04/28 12:02:53;;;;;;;7.30;4.18;;;;;;;;;;10394541;28;20031;-72
2022/04/28 12:07:56;;;;;;;10.40;4.32;;;;;;;;;;10407796;28;20040;-73
2022/04/28 12:23:46;;;;;;;20.45;5.25;;;;;;;;;;10392394;28;20033;-71
2022/04/28 12:28:50;;;;;;;5.70;3.90;;;;;;;;;;10392399;28;20118;-71
2022/04/28 12:33:52;;;;;;;15.65;4.57;;;;;;;;;;10392354;28;20033;-71
2022/04/28 12:39:00;;;;;;;6.55;4.80;;;;;;;;;;10408074;28;20042;-72
2022/04/28 12:44:06;;;;;;;6.82;3.88;;;;;;;;;;10382158;28;20449;-71
2022/04/28 12:49:10;;;;;;;22.85;5.45;;;;;;;;;;10384368;28;20057;-71
2022/04/28 12:54:15;;;;;;;17.30;4.90;;;;;;;;;;10395915;28;20445;-71
2022/04/28 12:59:21;;;;;;;13.77;4.53;;;;;;;;;;10389013;28;20189;-70
2022/04/28 13:04:25;;;;;;;7.93;4.38;;;;;;;;;;10390800;28;20041;-71
2022/04/28 13:09:29;;;;;;;37.45;7.00;;;;;;;;;;10385591;28;20447;-71
2022/04/28 13:14:34;;;;;;;6.18;3.90;;;;;;;;;;10381027;28;20224;-72
2022/04/28 13:19:37;;;;;;;5.75;4.25;;;;;;;;;;10395863;28;20083;-72
2022/04/28 13:24:40;;;;;;;7.50;4.00;;;;;;;;;;10390917;28;20029;-72
2022/04/28 13:29:46;;;;;;;16.80;4.75;;;;;;;;;;10396697;28;20140;-73
2022/04/28 13:34:49;;;;;;;7.38;4.10;;;;;;;;;;10404419;28;20116;-72
2022/04/28 13:39:53;;;;;;;6.80;4.55;;;;;;;;;;10378084;28;20048;-72
2022/04/28 13:44:57;;;;;;;6.72;4.70;;;;;;;;;;10397644;28;20095;-73
2022/04/28 13:50:00;;;;;;;6.95;4.50;;;;;;;;;;10395510;28;20065;-75
2022/04/28 13:55:02;;;;;;;11.48;4.55;;;;;;;;;;10392810;28;20059;-71
2022/04/28 14:00:08;;;;;;;10.75;4.30;;;;;;;;;;10386440;28;20048;-72
2022/04/28 14:05:11;;;;;;;9.60;4.70;;;;;;;;;;10380181;28;20034;-72
2022/04/28 14:10:14;;;;;;;6.68;4.22;;;;;;;;;;10389213;28;20145;-71
2022/04/28 14:15:19;;;;;;;7.68;3.30;;;;;;;;;;10391193;28;20128;-70
2022/04/28 14:20:22;;;;;;;10.50;4.00;;;;;;;;;;10388700;28;20049;-72
2022/04/28 14:25:25;;;;;;;7.28;4.20;;;;;;;;;;10409235;28;20066;-71
2022/04/28 14:30:29;;;;;;;13.77;4.63;;;;;;;;;;10403912;28;20128;-72
2022/04/28 14:35:34;;;;;;;22.17;5.88;;;;;;;;;;10385658;28;20042;-72
2022/04/28 14:40:36;;;;;;;7.30;3.45;;;;;;;;;;10385953;28;20488;-71
2022/04/28 14:45:43;;;;;;;6.85;3.38;;;;;;;;;;10391769;28;20029;-72
2022/04/28 14:56:06;;;;;;;18.50;5.65;;;;;;;;;;10395668;28;20038;-72
2022/04/28 15:01:12;;;;;;;7.30;3.80;;;;;;;;;;10381241;28;20494;-72
2022/04/28 15:06:15;;;;;;;7.85;4.38;;;;;;;;;;10387789;28;20095;-72
2022/04/28 15:11:18;;;;;;;5.65;3.17;;;;;;;;;;10388888;28;20081;-71
2022/04/28 15:16:22;;;;;;;15.48;4.35;;;;;;;;;;10395686;28;20085;-72
2022/04/28 15:21:25;;;;;;;11.75;4.07;;;;;;;;;;10397880;28;20054;-72
2022/04/28 15:26:27;;;;;;;8.20;3.88;;;;;;;;;;10390152;28;20132;-71
2022/04/28 15:31:37;;;;;;;8.32;4.32;;;;;;;;;;10392861;28;20185;-72
2022/04/28 15:36:40;;;;;;;32.90;5.18;;;;;;;;;;10381898;28;20053;-73
2022/04/28 15:41:44;;;;;;;12.70;4.40;;;;;;;;;;10402315;28;20048;-71
2022/04/28 15:46:48;;;;;;;8.23;4.20;;;;;;;;;;10422174;28;20121;-71
2022/04/28 15:51:51;;;;;;;11.23;4.13;;;;;;;;;;10401586;28;20045;-72
2022/04/28 15:56:54;;;;;;;7.65;4.40;;;;;;;;;;10399445;28;20045;-72
2022/04/28 16:01:59;;;;;;;8.55;3.88;;;;;;;;;;10396644;28;20064;-72
2022/04/28 16:07:02;;;;;;;5.88;3.60;;;;;;;;;;10386892;28;20103;-71
2022/04/28 16:12:06;;;;;;;5.35;3.50;;;;;;;;;;10388428;28;20041;-71
2022/04/28 16:17:11;;;;;;;7.70;4.13;;;;;;;;;;10397063;28;20064;-73
2022/04/28 16:22:15;;;;;;;6.78;3.80;;;;;;;;;;10407622;28;20411;-72
2022/04/28 16:27:25;;;;;;;6.28;3.53;;;;;;;;;;10399377;28;20049;-72
2022/04/28 16:32:33;;;;;;;6.55;3.83;;;;;;;;;;10398731;28;20034;-70
2022/04/28 16:37:36;;;;;;;5.07;2.85;;;;;;;;;;10384998;28;20061;-72
2022/04/28 16:42:39;;;;;;;5.28;3.33;;;;;;;;;;10387675;28;20053;-72
2022/04/28 16:47:43;;;;;;;5.78;3.33;;;;;;;;;;10397703;28;20037;-75
2022/04/28 16:52:47;;;;;;;6.65;3.40;;;;;;;;;;10398043;28;20064;-70
2022/04/28 16:57:50;;;;;;;7.30;3.58;;;;;;;;;;10398528;28;20329;-71
2022/04/28 17:08:35;;;;;;;9.05;3.78;;;;;;;;;;10396011;28;20033;-71
2022/04/28 17:13:38;;;;;;;6.13;3.43;;;;;;;;;;10402120;28;20539;-72
2022/04/28 17:18:42;;;;;;;6.07;3.70;;;;;;;;;;10402118;28;20053;-72
2022/04/28 17:23:45;;;;;;;6.18;3.70;;;;;;;;;;10381534;28;20111;-71
2022/04/28 17:28:49;;;;;;;6.63;3.40;;;;;;;;;;10397506;28;20051;-73
2022/04/28 17:33:54;;;;;;;5.85;3.40;;;;;;;;;;10384002;28;20041;-71
2022/04/28 17:38:58;;;;;;;7.57;3.72;;;;;;;;;;10401337;28;20061;-71
2022/04/28 17:44:03;;;;;;;5.20;3.05;;;;;;;;;;10407906;28;20033;-71
2022/04/28 17:49:07;;;;;;;6.07;3.63;;;;;;;;;;10406580;28;20061;-72
2022/04/28 17:54:15;;;;;;;8.30;3.40;;;;;;;;;;10394437;28;20406;-69
2022/04/28 18:04:40;;;;;;;8.88;3.97;;;;;;;;;;10393545;28;20041;-72
2022/04/28 18:09:46;;;;;;;5.13;3.15;;;;;;;;;;10397063;28;20092;-71
2022/04/28 18:14:48;;;;;;;6.50;3.57;;;;;;;;;;10399124;28;20068;-72
2022/04/28 18:19:54;;;;;;;6.22;3.70;;;;;;;;;;10384980;28;20102;-72
2022/04/28 18:24:57;;;;;;;6.28;3.78;;;;;;;;;;10385581;28;20115;-71
2022/04/28 18:30:06;;;;;;;8.70;4.37;;;;;;;;;;10395872;28;20041;-71
2022/04/28 18:35:10;;;;;;;7.25;4.45;;;;;;;;;;10412353;28;20222;-72
2022/04/28 18:45:33;;;;;;;6.65;4.13;;;;;;;;;;10413788;28;20037;-71
2022/04/28 18:50:38;;;;;;;9.70;4.28;;;;;;;;;;10413286;28;20056;-72
2022/04/28 18:55:43;;;;;;;8.82;4.60;;;;;;;;;;10403553;28;20091;-72
2022/04/28 19:00:46;;;;;;;8.07;4.18;;;;;;;;;;10406926;28;20086;-72
2022/04/28 19:05:50;;;;;;;7.45;4.63;;;;;;;;;;10401716;28;20418;-76
2022/04/28 19:10:53;;;;;;;9.68;4.38;;;;;;;;;;10396233;28;20399;-76
2022/04/28 19:15:56;;;;;;;11.77;4.68;;;;;;;;;;10414294;28;20060;-73
2022/04/28 19:21:06;;;;;;;10.65;5.03;;;;;;;;;;10417750;28;20037;-75
2022/04/28 19:26:09;;;;;;;8.82;4.63;;;;;;;;;;10407268;28;20054;-76
2022/04/28 19:31:13;;;;;;;11.10;4.93;;;;;;;;;;10418583;28;20043;-75
2022/04/28 19:36:17;;;;;;;9.43;4.30;;;;;;;;;;10425844;28;20045;-76
2022/04/28 19:41:20;;;;;;;11.10;4.78;;;;;;;;;;10418507;28;20065;-75
2022/04/28 19:46:23;;;;;;;7.28;3.92;;;;;;;;;;10416212;28;20049;-75
2022/04/28 19:51:27;;;;;;;11.40;6.00;;;;;;;;;;10417505;28;20034;-76
2022/04/28 19:56:30;;;;;;;12.35;5.32;;;;;;;;;;10409546;28;20522;-75
2022/04/28 20:01:33;;;;;;;10.53;4.53;;;;;;;;;;10406822;28;20068;-75
2022/04/28 20:06:38;;;;;;;10.02;5.22;;;;;;;;;;10407906;28;20043;-75
2022/04/28 20:11:45;;;;;;;10.02;5.38;;;;;;;;;;10415475;28;20084;-75
2022/04/28 20:16:50;;;;;;;9.77;5.35;;;;;;;;;;10433940;28;20037;-74
2022/04/28 20:21:55;;;;;;;9.15;5.05;;;;;;;;;;10415933;28;20053;-75
2022/04/28 20:26:58;;;;;;;10.18;5.15;;;;;;;;;;10412114;28;20103;-75
2022/04/28 20:32:02;;;;;;;11.40;5.53;;;;;;;;;;10415994;28;20124;-75
2022/04/28 20:37:06;;;;;;;8.77;5.23;;;;;;;;;;10423625;28;20452;-76
2022/04/28 20:42:14;;;;;;;16.38;7.40;;;;;;;;;;10413793;28;20041;-76
2022/04/28 20:47:17;;;;;;;32.65;12.85;;;;;;;;;;10420137;28;20071;-76
2022/04/28 20:52:22;;;;;;;18.40;7.97;;;;;;;;;;10411547;28;20048;-75
2022/04/28 20:57:26;;;;;;;10.85;5.15;;;;;;;;;;10411730;28;20044;-74
2022/04/28 21:02:29;;;;;;;11.68;5.43;;;;;;;;;;10424374;28;20076;-73
2022/04/28 21:07:33;;;;;;;15.27;6.20;;;;;;;;;;10411497;28;20045;-75
2022/04/28 21:12:36;;;;;;;12.07;5.93;;;;;;;;;;10411517;28;20041;-75
2022/04/28 21:17:40;;;;;;;12.05;5.50;;;;;;;;;;10418391;28;20037;-76
2022/04/28 21:22:45;;;;;;;11.27;6.15;;;;;;;;;;10402652;28;20037;-76
2022/04/28 21:27:48;;;;;;;10.80;6.22;;;;;;;;;;10396525;28;20719;-75
2022/04/28 21:32:51;;;;;;;17.77;7.63;;;;;;;;;;10412318;28;20064;-75
2022/04/28 21:37:55;;;;;;;12.02;6.45;;;;;;;;;;10401397;28;20475;-75
2022/04/28 21:43:01;;;;;;;13.18;6.03;;;;;;;;;;10402786;28;20443;-75
2022/04/28 21:48:04;;;;;;;10.27;5.55;;;;;;;;;;10399439;28;20171;-76
2022/04/28 21:53:08;;;;;;;12.90;6.35;;;;;;;;;;10392522;28;20084;-74
2022/04/28 21:58:11;;;;;;;14.25;6.07;;;;;;;;;;10391927;28;20034;-75
2022/04/28 22:11:11;;;;;;;29.35;11.90;;;;;;;;;;10397497;28;20498;-76
2022/04/28 22:13:59;;;;;;;10.95;5.40;;;;;;;;;;10418657;28;20106;-74
2022/04/28 22:19:02;;;;;;;10.90;5.43;;;;;;;;;;10391334;28;20030;-76
2022/04/28 22:24:07;;;;;;;11.68;6.30;;;;;;;;;;10402792;28;20084;-75
2022/04/28 22:29:10;;;;;;;33.60;13.27;;;;;;;;;;10402648;28;20121;-74
2022/04/28 22:34:13;;;;;;;23.65;8.65;;;;;;;;;;10398150;28;20045;-74
2022/04/28 22:39:19;;;;;;;12.57;6.45;;;;;;;;;;10398701;28;20474;-74
2022/04/28 22:44:22;;;;;;;15.10;6.00;;;;;;;;;;10393579;28;20038;-74
2022/04/28 22:49:24;;;;;;;11.95;5.40;;;;;;;;;;10394828;28;20502;-75
2022/04/28 22:54:29;;;;;;;11.73;5.65;;;;;;;;;;10403888;28;20175;-73
2022/04/28 22:59:31;;;;;;;;;;;;;;;;;;10383985;28;20044;-75
2022/04/28 23:04:35;;;;;;;15.63;4.82;;;;;;;;;;10392036;28;19925;-76
2022/04/28 23:09:40;;;;;;;9.18;4.97;;;;;;;;;;10393202;28;20069;-74
2022/04/28 23:14:45;;;;;;;12.73;5.20;;;;;;;;;;10424091;28;20041;-75
2022/04/28 23:19:48;;;;;;;25.48;11.02;;;;;;;;;;10393833;28;20127;-73
2022/04/28 23:24:52;;;;;;;12.75;5.82;;;;;;;;;;10384784;28;20132;-75
2022/04/28 23:29:54;;;;;;;;;;;;;;;;;;10395924;28;20128;-74
2022/04/28 23:40:20;;;;;;;8.85;4.75;;;;;;;;;;10388934;28;20217;-74
2022/04/28 23:45:22;;;;;;;;;;;;;;;;;;10402507;28;20030;-74
2022/04/28 23:50:26;;;;;;;11.70;5.45;;;;;;;;;;10396665;28;20246;-74
2022/04/28 23:55:30;;;;;;;9.57;5.23;;;;;;;;;;10403172;28;20096;-75
